Time,TemperatureF,DewpointF,PressureIn,WindDirection,WindDirectionDegrees,WindSpeedMPH,WindSpeedGustMPH,Humidity,HourlyPrecipIn,Conditions,Clouds,dailyrainin,SoftwareType,DateUTC
2013-06-01 00:02:00,69.0,62.6,29.73,NNE,18,2.0,25.0,80,0.00,,,0.00,Wunderground v.1.15,2013-06-01 05:02:00,
2013-06-01 00:12:00,68.8,62.7,29.74,North,357,1.0,25.0,81,0.00,,,0.00,Wunderground v.1.15,2013-06-01 05:12:00,
2013-06-01 00:22:00,67.7,62.3,29.74,NNE,14,2.0,25.0,83,0.00,,,0.00,Wunderground v.1.15,2013-06-01 05:22:00,
2013-06-01 00:32:00,66.8,61.8,29.74,North,360,2.0,2.0,84,0.00,,,0.00,Wunderground v.1.15,2013-06-01 05:32:00,
2013-06-01 00:41:00,66.7,62.0,29.74,NE,45,1.0,25.0,85,0.00,,,0.00,Wunderground v.1.15,2013-06-01 05:41:00,
2013-06-01 00:51:00,68.0,62.6,29.73,ENE,75,3.0,25.0,83,0.00,,,0.00,Wunderground v.1.15,2013-06-01 05:51:00,
2013-06-01 01:01:00,68.5,62.8,29.72,ENE,66,4.0,25.0,82,0.00,,,0.00,Wunderground v.1.15,2013-06-01 06:01:00,
2013-06-01 01:12:00,69.1,62.7,29.72,East,98,5.0,25.0,80,0.00,,,0.00,Wunderground v.1.15,2013-06-01 06:12:00,
2013-06-01 01:22:00,69.4,62.6,29.73,ENE,59,4.0,4.0,79,0.00,,,0.00,Wunderground v.1.15,2013-06-01 06:22:00,
2013-06-01 01:31:00,69.1,62.7,29.76,WNW,294,2.0,25.0,80,0.00,,,0.00,Wunderground v.1.15,2013-06-01 06:31:00,
2013-06-01 01:42:00,68.1,63.1,29.78,WNW,287,4.0,4.0,84,0.00,,,0.00,Wunderground v.1.15,2013-06-01 06:42:00,
2013-06-01 01:52:00,68.1,63.1,29.76,NNW,328,3.0,25.0,84,0.00,,,0.00,Wunderground v.1.15,2013-06-01 06:52:00,
2013-06-01 02:02:00,69.5,60.8,29.76,NE,51,6.0,6.0,74,0.00,,,0.00,Wunderground v.1.15,2013-06-01 07:02:00,
2013-06-01 02:12:00,71.5,58.2,29.78,East,99,3.0,3.0,63,0.00,,,0.00,Wunderground v.1.15,2013-06-01 07:12:00,
2013-06-01 02:22:00,69.7,61.8,29.79,WNW,295,5.0,25.0,76,0.00,,,0.00,Wunderground v.1.15,2013-06-01 07:22:00,
2013-06-01 02:32:00,69.0,62.2,29.79,NNW,343,10.0,25.0,79,0.00,,,0.00,Wunderground v.1.15,2013-06-01 07:32:00,
2013-06-01 02:42:00,68.0,61.2,29.80,NW,304,9.0,25.0,79,0.00,,,0.00,Wunderground v.1.15,2013-06-01 07:42:00,
2013-06-01 02:52:00,68.2,60.0,29.76,NW,308,10.0,10.0,75,0.00,,,0.00,Wunderground v.1.15,2013-06-01 07:52:00,
2013-06-01 03:02:00,66.9,59.8,29.74,WNW,302,4.0,4.0,78,0.00,,,0.00,Wunderground v.1.15,2013-06-01 08:02:00,
2013-06-01 03:12:00,66.4,59.7,29.75,NW,320,3.0,25.0,79,0.00,,,0.00,Wunderground v.1.15,2013-06-01 08:12:00,
2013-06-01 03:22:00,65.7,59.4,29.73,NNE,17,3.0,3.0,80,0.00,,,0.00,Wunderground v.1.15,2013-06-01 08:22:00,
2013-06-01 03:32:00,65.0,56.1,29.77,NNW,342,9.0,25.0,73,0.00,,,0.00,Wunderground v.1.15,2013-06-01 08:32:00,
2013-06-01 03:42:00,63.6,56.3,29.76,East,83,8.0,25.0,77,0.00,,,0.00,Wunderground v.1.15,2013-06-01 08:42:00,
2013-06-01 03:52:00,63.2,55.1,29.77,NNW,346,9.0,9.0,75,0.00,,,0.00,Wunderground v.1.15,2013-06-01 08:52:00,
2013-06-01 04:02:00,62.5,55.2,29.74,NE,51,9.0,9.0,77,0.00,,,0.00,Wunderground v.1.15,2013-06-01 09:02:00,
2013-06-01 04:12:00,61.6,54.7,29.76,NE,39,9.0,9.0,78,0.00,,,0.00,Wunderground v.1.15,2013-06-01 09:12:00,
2013-06-01 04:21:00,61.2,52.5,29.78,NNW,345,8.0,8.0,73,0.00,,,0.00,Wunderground v.1.15,2013-06-01 09:21:00,
2013-06-01 04:31:00,60.5,51.8,29.77,North,349,7.0,7.0,73,0.00,,,0.00,Wunderground v.1.15,2013-06-01 09:31:00,
2013-06-01 04:41:00,60.3,51.6,29.78,NNW,348,7.0,25.0,73,0.00,,,0.00,Wunderground v.1.15,2013-06-01 09:41:00,
2013-06-01 04:51:00,60.0,51.3,29.78,NW,312,7.0,25.0,73,0.00,,,0.00,Wunderground v.1.15,2013-06-01 09:51:00,
2013-06-01 05:02:00,59.3,51.7,29.79,NW,311,6.0,25.0,76,0.00,,,0.00,Wunderground v.1.15,2013-06-01 10:02:00,
2013-06-01 05:12:00,58.3,51.5,29.79,NW,320,6.0,6.0,78,0.00,,,0.00,Wunderground v.1.15,2013-06-01 10:12:00,
2013-06-01 05:22:00,58.4,50.9,29.80,NW,304,8.0,25.0,76,0.00,,,0.00,Wunderground v.1.15,2013-06-01 10:22:00,
2013-06-01 05:32:00,58.4,50.9,29.80,NW,312,9.0,9.0,76,0.00,,,0.00,Wunderground v.1.15,2013-06-01 10:32:00,
2013-06-01 05:42:00,57.8,50.3,29.81,WNW,302,9.0,25.0,76,0.00,,,0.00,Wunderground v.1.15,2013-06-01 10:42:00,
2013-06-01 05:52:00,57.5,50.0,29.81,NW,308,9.0,25.0,76,0.00,,,0.00,Wunderground v.1.15,2013-06-01 10:52:00,
2013-06-01 06:02:00,57.2,50.1,29.82,NW,304,9.0,9.0,77,0.00,,,0.00,Wunderground v.1.15,2013-06-01 11:02:00,
2013-06-01 06:12:00,57.2,49.7,29.82,WNW,296,10.0,25.0,76,0.00,,,0.00,Wunderground v.1.15,2013-06-01 11:12:00,
2013-06-01 06:22:00,57.4,49.5,29.83,WNW,296,11.0,11.0,75,0.00,,,0.00,Wunderground v.1.15,2013-06-01 11:22:00,
2013-06-01 06:32:00,57.0,49.5,29.83,NW,307,9.0,25.0,76,0.00,,,0.00,Wunderground v.1.15,2013-06-01 11:32:00,
2013-06-01 06:42:00,56.7,49.6,29.84,NW,309,9.0,9.0,77,0.00,,,0.00,Wunderground v.1.15,2013-06-01 11:42:00,
2013-06-01 06:52:00,56.9,49.8,29.85,NW,323,8.0,25.0,77,0.00,,,0.00,Wunderground v.1.15,2013-06-01 11:52:00,
2013-06-01 07:02:00,57.1,49.6,29.85,NW,316,9.0,25.0,76,0.00,,,0.00,Wunderground v.1.15,2013-06-01 12:02:00,
2013-06-01 07:12:00,57.5,50.0,29.86,NW,319,9.0,9.0,76,0.00,,,0.00,Wunderground v.1.15,2013-06-01 12:12:00,
2013-06-01 07:22:00,58.0,49.8,29.86,NW,304,10.0,10.0,74,0.00,,,0.00,Wunderground v.1.15,2013-06-01 12:22:00,
2013-06-01 07:32:00,58.4,50.1,29.86,NW,304,10.0,25.0,74,0.00,,,0.00,Wunderground v.1.15,2013-06-01 12:32:00,
2013-06-01 07:41:00,59.0,50.4,29.87,WNW,300,11.0,25.0,73,0.00,,,0.00,Wunderground v.1.15,2013-06-01 12:41:00,
2013-06-01 07:51:00,59.4,50.0,29.87,NW,311,12.0,12.0,71,0.00,,,0.00,Wunderground v.1.15,2013-06-01 12:51:00,
2013-06-01 08:01:00,59.8,50.8,29.88,NW,314,11.0,11.0,72,0.00,,,0.00,Wunderground v.1.15,2013-06-01 13:01:00,
2013-06-01 08:12:00,60.1,50.7,29.88,WNW,295,11.0,11.0,71,0.00,,,0.00,Wunderground v.1.15,2013-06-01 13:12:00,
2013-06-01 08:21:00,60.5,51.0,29.89,WNW,296,13.0,13.0,71,0.00,,,0.00,Wunderground v.1.15,2013-06-01 13:21:00,
2013-06-01 08:31:00,60.9,51.0,29.90,NW,314,12.0,25.0,70,0.00,,,0.00,Wunderground v.1.15,2013-06-01 13:31:00,
2013-06-01 08:42:00,61.4,51.5,29.90,WNW,290,12.0,12.0,70,0.00,,,0.00,Wunderground v.1.15,2013-06-01 13:42:00,
2013-06-01 08:52:00,61.8,51.1,29.90,WNW,300,13.0,13.0,68,0.00,,,0.00,Wunderground v.1.15,2013-06-01 13:52:00,
2013-06-01 09:02:00,62.4,52.1,29.90,WNW,294,12.0,12.0,69,0.00,,,0.00,Wunderground v.1.15,2013-06-01 14:02:00,
2013-06-01 09:12:00,62.9,50.5,29.90,NW,309,14.0,25.0,64,0.00,,,0.00,Wunderground v.1.15,2013-06-01 14:12:00,
2013-06-01 09:22:00,63.2,51.2,29.91,NW,309,15.0,15.0,65,0.00,,,0.00,Wunderground v.1.15,2013-06-01 14:22:00,
2013-06-01 09:32:00,64.0,51.1,29.91,WNW,301,12.0,25.0,63,0.00,,,0.00,Wunderground v.1.15,2013-06-01 14:32:00,
2013-06-01 09:42:00,64.1,51.2,29.91,North,352,14.0,14.0,63,0.00,,,0.00,Wunderground v.1.15,2013-06-01 14:42:00,
2013-06-01 09:52:00,64.7,51.8,29.91,NW,313,10.0,25.0,63,0.00,,,0.00,Wunderground v.1.15,2013-06-01 14:52:00,
2013-06-01 10:02:00,64.5,51.2,29.92,NW,317,15.0,15.0,62,0.00,,,0.00,Wunderground v.1.15,2013-06-01 15:02:00,
2013-06-01 10:12:00,64.6,50.4,29.92,WNW,302,14.0,14.0,60,0.00,,,0.00,Wunderground v.1.15,2013-06-01 15:12:00,
2013-06-01 10:22:00,65.0,50.3,29.92,North,352,13.0,25.0,59,0.00,,,0.00,Wunderground v.1.15,2013-06-01 15:22:00,
2013-06-01 10:32:00,65.8,52.9,29.92,NW,311,11.0,11.0,63,0.00,,,0.00,Wunderground v.1.15,2013-06-01 15:32:00,
2013-06-01 10:42:00,66.0,53.0,29.92,WNW,290,12.0,25.0,63,0.00,,,0.00,Wunderground v.1.15,2013-06-01 15:42:00,
2013-06-01 10:52:00,65.9,52.9,29.93,WNW,298,16.0,25.0,63,0.00,,,0.00,Wunderground v.1.15,2013-06-01 15:52:00,
2013-06-01 11:02:00,65.8,52.4,29.92,WNW,290,12.0,25.0,62,0.00,,,0.00,Wunderground v.1.15,2013-06-01 16:02:00,
2013-06-01 11:12:00,66.0,52.2,29.93,WNW,295,14.0,14.0,61,0.00,,,0.00,Wunderground v.1.15,2013-06-01 16:12:00,
2013-06-01 11:21:00,67.0,52.7,29.93,NNW,328,10.0,25.0,60,0.00,,,0.00,Wunderground v.1.15,2013-06-01 16:21:00,
2013-06-01 11:31:00,66.6,52.3,29.93,NW,307,13.0,13.0,60,0.00,,,0.00,Wunderground v.1.15,2013-06-01 16:31:00,
2013-06-01 11:41:00,65.8,51.5,29.94,NW,314,15.0,25.0,60,0.00,,,0.00,Wunderground v.1.15,2013-06-01 16:41:00,
2013-06-01 11:52:00,65.0,51.7,29.94,WNW,288,15.0,15.0,62,0.00,,,0.00,Wunderground v.1.15,2013-06-01 16:52:00,
2013-06-01 12:02:00,64.9,53.7,29.95,NNW,348,15.0,25.0,67,0.00,,,0.00,Wunderground v.1.15,2013-06-01 17:02:00,
2013-06-01 12:12:00,65.3,52.8,29.96,NW,311,14.0,25.0,64,0.00,,,0.00,Wunderground v.1.15,2013-06-01 17:12:00,
2013-06-01 12:22:00,65.5,51.7,29.95,WNW,295,13.0,25.0,61,0.00,,,0.00,Wunderground v.1.15,2013-06-01 17:22:00,
2013-06-01 12:32:00,65.8,52.4,29.96,WNW,295,15.0,25.0,62,0.00,,,0.00,Wunderground v.1.15,2013-06-01 17:32:00,
2013-06-01 12:42:00,65.4,52.0,29.96,NNW,329,15.0,15.0,62,0.00,,,0.00,Wunderground v.1.15,2013-06-01 17:42:00,
2013-06-01 12:52:00,66.2,52.8,29.96,NNW,345,14.0,25.0,62,0.00,,,0.00,Wunderground v.1.15,2013-06-01 17:52:00,
2013-06-01 13:02:00,66.6,52.7,29.96,WNW,284,12.0,25.0,61,0.00,,,0.00,Wunderground v.1.15,2013-06-01 18:02:00,
2013-06-01 13:12:00,66.6,54.0,29.96,NW,307,13.0,13.0,64,0.00,,,0.00,Wunderground v.1.15,2013-06-01 18:12:00,
2013-06-01 13:22:00,66.7,53.7,29.96,WNW,290,12.0,25.0,63,0.00,,,0.00,Wunderground v.1.15,2013-06-01 18:22:00,
2013-06-01 13:32:00,67.1,53.6,29.96,WNW,290,13.0,25.0,62,0.00,,,0.00,Wunderground v.1.15,2013-06-01 18:32:00,
2013-06-01 13:42:00,67.5,54.5,29.96,North,349,14.0,14.0,63,0.00,,,0.00,Wunderground v.1.15,2013-06-01 18:42:00,
2013-06-01 13:52:00,67.2,53.3,29.96,NW,312,13.0,13.0,61,0.00,,,0.00,Wunderground v.1.15,2013-06-01 18:52:00,
2013-06-01 14:02:00,67.1,54.1,29.96,WNW,302,11.0,25.0,63,0.00,,,0.00,Wunderground v.1.15,2013-06-01 19:02:00,
2013-06-01 14:12:00,67.3,54.3,29.96,WNW,299,12.0,25.0,63,0.00,,,0.00,Wunderground v.1.15,2013-06-01 19:12:00,
2013-06-01 14:22:00,67.2,54.2,29.96,WNW,297,13.0,25.0,63,0.00,,,0.00,Wunderground v.1.15,2013-06-01 19:22:00,
2013-06-01 14:31:00,67.4,54.8,29.97,West,281,12.0,25.0,64,0.00,,,0.00,Wunderground v.1.15,2013-06-01 19:31:00,
2013-06-01 14:41:00,67.8,54.7,29.96,WNW,294,12.0,25.0,63,0.00,,,0.00,Wunderground v.1.15,2013-06-01 19:41:00,
2013-06-01 14:51:00,67.7,54.2,29.97,WNW,292,13.0,25.0,62,0.00,,,0.00,Wunderground v.1.15,2013-06-01 19:51:00,
2013-06-01 15:01:00,67.9,54.8,29.96,NNW,330,13.0,25.0,63,0.00,,,0.00,Wunderground v.1.15,2013-06-01 20:01:00,
2013-06-01 15:12:00,68.1,54.6,29.96,WNW,303,15.0,25.0,62,0.00,,,0.00,Wunderground v.1.15,2013-06-01 20:12:00,
2013-06-01 15:21:00,68.8,55.2,29.96,NW,316,13.0,13.0,62,0.00,,,0.00,Wunderground v.1.15,2013-06-01 20:21:00,
2013-06-01 15:31:00,68.9,55.8,29.96,NW,325,13.0,13.0,63,0.00,,,0.00,Wunderground v.1.15,2013-06-01 20:31:00,
2013-06-01 15:42:00,69.6,55.6,29.96,NW,309,12.0,25.0,61,0.00,,,0.00,Wunderground v.1.15,2013-06-01 20:42:00,
2013-06-01 15:52:00,69.6,55.6,29.96,West,262,14.0,14.0,61,0.00,,,0.00,Wunderground v.1.15,2013-06-01 20:52:00,
2013-06-01 16:02:00,69.9,56.7,29.96,WNW,287,12.0,25.0,63,0.00,,,0.00,Wunderground v.1.15,2013-06-01 21:02:00,
2013-06-01 16:12:00,70.1,56.9,29.96,NNW,328,12.0,25.0,63,0.00,,,0.00,Wunderground v.1.15,2013-06-01 21:12:00,
2013-06-01 16:22:00,70.2,55.2,29.96,WNW,300,12.0,12.0,59,0.00,,,0.00,Wunderground v.1.15,2013-06-01 21:22:00,
2013-06-01 16:32:00,70.1,55.6,29.96,WNW,299,12.0,25.0,60,0.00,,,0.00,Wunderground v.1.15,2013-06-01 21:32:00,
2013-06-01 16:42:00,70.1,55.6,29.96,WNW,301,11.0,11.0,60,0.00,,,0.00,Wunderground v.1.15,2013-06-01 21:42:00,
2013-06-01 16:52:00,70.2,56.6,29.97,WNW,293,12.0,12.0,62,0.00,,,0.00,Wunderground v.1.15,2013-06-01 21:52:00,
2013-06-01 17:02:00,70.0,55.9,29.97,NW,304,10.0,10.0,61,0.00,,,0.00,Wunderground v.1.15,2013-06-01 22:02:00,
2013-06-01 17:12:00,70.2,55.2,29.96,NW,318,9.0,25.0,59,0.00,,,0.00,Wunderground v.1.15,2013-06-01 22:12:00,
2013-06-01 17:22:00,69.4,56.3,29.97,WNW,290,8.0,8.0,63,0.00,,,0.00,Wunderground v.1.15,2013-06-01 22:22:00,
2013-06-01 17:32:00,69.8,56.2,29.97,WNW,295,6.0,6.0,62,0.00,,,0.00,Wunderground v.1.15,2013-06-01 22:32:00,
2013-06-01 17:42:00,69.6,56.0,29.97,WNW,298,7.0,25.0,62,0.00,,,0.00,Wunderground v.1.15,2013-06-01 22:42:00,
2013-06-01 17:52:00,70.9,56.3,29.97,WNW,298,7.0,7.0,60,0.00,,,0.00,Wunderground v.1.15,2013-06-01 22:52:00,
2013-06-01 18:02:00,71.5,55.5,29.97,North,1,7.0,25.0,57,0.00,,,0.00,Wunderground v.1.15,2013-06-01 23:02:00,
2013-06-01 18:12:00,70.6,56.0,29.97,WNW,298,9.0,9.0,60,0.00,,,0.00,Wunderground v.1.15,2013-06-01 23:12:00,
2013-06-01 18:22:00,71.2,55.7,29.97,NNW,336,8.0,25.0,58,0.00,,,0.00,Wunderground v.1.15,2013-06-01 23:22:00,
2013-06-01 18:32:00,71.2,55.7,29.97,NW,311,9.0,25.0,58,0.00,,,0.00,Wunderground v.1.15,2013-06-01 23:32:00,
2013-06-01 18:42:00,71.5,56.4,29.97,WNW,293,7.0,7.0,59,0.00,,,0.00,Wunderground v.1.15,2013-06-01 23:42:00,
2013-06-01 18:51:00,70.9,55.9,29.97,NW,311,7.0,25.0,59,0.00,,,0.00,Wunderground v.1.15,2013-06-01 23:51:00,
2013-06-01 19:01:00,71.3,56.2,29.97,North,359,5.0,25.0,59,0.00,,,0.00,Wunderground v.1.15,2013-06-02 00:01:00,
2013-06-01 19:11:00,70.9,55.9,29.97,North,1,6.0,25.0,59,0.00,,,0.00,Wunderground v.1.15,2013-06-02 00:11:00,
2013-06-01 19:22:00,70.3,56.7,29.98,North,1,6.0,25.0,62,0.00,,,0.00,Wunderground v.1.15,2013-06-02 00:22:00,
2013-06-01 19:32:00,70.0,56.4,29.98,North,349,6.0,25.0,62,0.00,,,0.00,Wunderground v.1.15,2013-06-02 00:32:00,
2013-06-01 19:42:00,69.3,55.7,29.99,NNW,333,7.0,7.0,62,0.00,,,0.00,Wunderground v.1.15,2013-06-02 00:42:00,
2013-06-01 19:52:00,69.1,56.8,29.99,NNW,329,6.0,6.0,65,0.00,,,0.00,Wunderground v.1.15,2013-06-02 00:52:00,
2013-06-01 20:02:00,68.5,55.8,30.00,NW,308,6.0,6.0,64,0.00,,,0.00,Wunderground v.1.15,2013-06-02 01:02:00,
2013-06-01 20:12:00,67.9,55.3,30.00,North,352,6.0,6.0,64,0.00,,,0.00,Wunderground v.1.15,2013-06-02 01:12:00,
2013-06-01 20:22:00,66.9,55.2,30.00,North,9,6.0,6.0,66,0.00,,,0.00,Wunderground v.1.15,2013-06-02 01:22:00,
2013-06-01 20:23:00,66.5,55.2,30.00,North,0,5.0,-999.0,67,0.00,,,0.00,Wunderground v.1.15,2013-06-02 01:23:00,
2013-06-01 20:28:00,66.5,55.2,30.00,North,0,5.0,-999.0,67,0.00,,,0.00,Wunderground v.1.15,2013-06-02 01:28:00,
2013-06-01 20:32:00,66.3,55.4,30.00,NW,324,4.0,25.0,68,0.00,,,0.00,Wunderground v.1.15,2013-06-02 01:32:00,
2013-06-01 20:33:00,66.5,55.2,30.00,North,0,5.0,-999.0,67,0.00,,,0.00,Wunderground v.1.15,2013-06-02 01:33:00,
2013-06-01 20:38:00,64.7,55.1,30.01,North,0,4.0,-999.0,71,0.00,,,0.00,Wunderground v.1.15,2013-06-02 01:38:00,
2013-06-01 20:42:00,65.2,55.2,30.01,NNW,346,4.0,4.0,70,0.00,,,0.00,Wunderground v.1.15,2013-06-02 01:42:00,
2013-06-01 20:43:00,64.7,55.1,30.01,North,0,4.0,-999.0,71,0.00,,,0.00,Wunderground v.1.15,2013-06-02 01:43:00,
2013-06-01 20:48:00,64.7,55.1,30.01,North,0,4.0,-999.0,71,0.00,,,0.00,Wunderground v.1.15,2013-06-02 01:48:00,
2013-06-01 20:52:00,63.8,55.7,30.01,North,9,3.0,25.0,75,0.00,,,0.00,Wunderground v.1.15,2013-06-02 01:52:00,
2013-06-01 20:53:00,63.0,55.3,30.01,North,0,3.0,-999.0,76,0.00,,,0.00,Wunderground v.1.15,2013-06-02 01:53:00,
2013-06-01 20:58:00,63.0,55.3,30.01,North,0,3.0,-999.0,76,0.00,,,0.00,Wunderground v.1.15,2013-06-02 01:58:00,
2013-06-01 21:02:00,62.9,55.2,30.01,NNE,12,3.0,25.0,76,0.00,,,0.00,Wunderground v.1.15,2013-06-02 02:02:00,
2013-06-01 21:03:00,63.0,55.3,30.01,North,0,3.0,-999.0,76,0.00,,,0.00,Wunderground v.1.15,2013-06-02 02:03:00,
2013-06-01 21:08:00,62.0,55.1,30.02,NNE,23,3.0,-999.0,78,0.00,,,0.00,Wunderground v.1.15,2013-06-02 02:08:00,
2013-06-01 21:12:00,62.2,55.3,30.02,NE,37,3.0,3.0,78,0.00,,,0.00,Wunderground v.1.15,2013-06-02 02:12:00,
2013-06-01 21:13:00,62.0,55.1,30.02,NNE,23,3.0,-999.0,78,0.00,,,0.00,Wunderground v.1.15,2013-06-02 02:13:00,
2013-06-01 21:18:00,62.0,55.1,30.02,NNE,23,3.0,-999.0,78,0.00,,,0.00,Wunderground v.1.15,2013-06-02 02:18:00,
2013-06-01 21:22:00,61.4,54.8,30.02,NNW,332,3.0,3.0,79,0.00,,,0.00,Wunderground v.1.15,2013-06-02 02:22:00,
2013-06-01 21:23:00,61.3,54.7,30.03,North,0,2.0,-999.0,79,0.00,,,0.00,Wunderground v.1.15,2013-06-02 02:23:00,
2013-06-01 21:28:00,61.3,54.7,30.03,North,0,2.0,-999.0,79,0.00,,,0.00,Wunderground v.1.15,2013-06-02 02:28:00,
2013-06-01 21:32:00,61.3,54.7,30.03,NNW,336,2.0,25.0,79,0.00,,,0.00,Wunderground v.1.15,2013-06-02 02:32:00,
2013-06-01 21:33:00,61.3,54.7,30.03,North,0,2.0,-999.0,79,0.00,,,0.00,Wunderground v.1.15,2013-06-02 02:33:00,
2013-06-01 21:38:00,60.9,54.7,30.04,NNW,338,1.0,-999.0,80,0.00,,,0.00,Wunderground v.1.15,2013-06-02 02:38:00,
2013-06-01 21:42:00,60.9,54.7,30.04,NW,325,1.0,25.0,80,0.00,,,0.00,Wunderground v.1.15,2013-06-02 02:42:00,
2013-06-01 21:43:00,60.9,54.7,30.04,NNW,338,1.0,-999.0,80,0.00,,,0.00,Wunderground v.1.15,2013-06-02 02:43:00,
2013-06-01 21:48:00,60.9,54.7,30.04,NNW,338,1.0,-999.0,80,0.00,,,0.00,Wunderground v.1.15,2013-06-02 02:48:00,
2013-06-01 21:52:00,60.7,54.5,30.05,NNW,335,3.0,25.0,80,0.00,,,0.00,Wunderground v.1.15,2013-06-02 02:52:00,
2013-06-01 21:53:00,60.7,54.5,30.05,NW,315,3.0,-999.0,80,0.00,,,0.00,Wunderground v.1.15,2013-06-02 02:53:00,
2013-06-01 21:58:00,60.7,54.5,30.05,NW,315,3.0,-999.0,80,0.00,,,0.00,Wunderground v.1.15,2013-06-02 02:58:00,
2013-06-01 22:01:00,60.7,54.1,30.05,WNW,301,3.0,25.0,79,0.00,,,0.00,Wunderground v.1.15,2013-06-02 03:01:00,
2013-06-01 22:03:00,60.7,54.5,30.05,NW,315,3.0,-999.0,80,0.00,,,0.00,Wunderground v.1.15,2013-06-02 03:03:00,
2013-06-01 22:08:00,61.0,53.4,30.06,NNW,338,4.0,-999.0,76,0.00,,,0.00,Wunderground v.1.15,2013-06-02 03:08:00,
2013-06-01 22:11:00,60.9,53.6,30.05,North,8,4.0,25.0,77,0.00,,,0.00,Wunderground v.1.15,2013-06-02 03:11:00,
2013-06-01 22:13:00,61.0,53.4,30.06,NNW,338,4.0,-999.0,76,0.00,,,0.00,Wunderground v.1.15,2013-06-02 03:13:00,
2013-06-01 22:18:00,61.0,53.4,30.06,NNW,338,4.0,-999.0,76,0.00,,,0.00,Wunderground v.1.15,2013-06-02 03:18:00,
2013-06-01 22:21:00,60.9,53.6,30.06,NW,320,4.0,4.0,77,0.00,,,0.00,Wunderground v.1.15,2013-06-02 03:21:00,
2013-06-01 22:23:00,60.7,53.4,30.06,NW,315,4.0,-999.0,77,0.00,,,0.00,Wunderground v.1.15,2013-06-02 03:23:00,
2013-06-01 22:28:00,60.7,53.4,30.06,NW,315,4.0,-999.0,77,0.00,,,0.00,Wunderground v.1.15,2013-06-02 03:28:00,
2013-06-01 22:31:00,60.7,53.4,30.06,WNW,290,4.0,25.0,77,0.00,,,0.00,Wunderground v.1.15,2013-06-02 03:31:00,
2013-06-01 22:33:00,60.7,53.4,30.06,NW,315,4.0,-999.0,77,0.00,,,0.00,Wunderground v.1.15,2013-06-02 03:33:00,
2013-06-01 22:38:00,60.2,53.3,30.06,NNW,338,5.0,-999.0,78,0.00,,,0.00,Wunderground v.1.15,2013-06-02 03:38:00,
2013-06-01 22:41:00,60.3,53.4,30.06,NNW,345,4.0,4.0,78,0.00,,,0.00,Wunderground v.1.15,2013-06-02 03:41:00,
2013-06-01 22:43:00,60.2,53.3,30.06,NNW,338,5.0,-999.0,78,0.00,,,0.00,Wunderground v.1.15,2013-06-02 03:43:00,
2013-06-01 22:48:00,60.2,53.3,30.06,NNW,338,5.0,-999.0,78,0.00,,,0.00,Wunderground v.1.15,2013-06-02 03:48:00,
2013-06-01 22:51:00,60.0,53.1,30.07,NNW,337,5.0,25.0,78,0.00,,,0.00,Wunderground v.1.15,2013-06-02 03:51:00,
2013-06-01 22:53:00,59.9,52.7,30.06,NNW,338,5.0,-999.0,77,0.00,,,0.00,Wunderground v.1.15,2013-06-02 03:53:00,
2013-06-01 22:58:00,59.9,52.7,30.06,NNW,338,5.0,-999.0,77,0.00,,,0.00,Wunderground v.1.15,2013-06-02 03:58:00,
2013-06-01 23:01:00,59.9,52.7,30.07,North,353,6.0,6.0,77,0.00,,,0.00,Wunderground v.1.15,2013-06-02 04:01:00,
2013-06-01 23:03:00,59.9,52.7,30.06,NNW,338,5.0,-999.0,77,0.00,,,0.00,Wunderground v.1.15,2013-06-02 04:03:00,
2013-06-01 23:08:00,59.5,52.3,30.07,NNW,338,5.0,-999.0,77,0.00,,,0.00,Wunderground v.1.15,2013-06-02 04:08:00,
2013-06-01 23:12:00,59.5,52.3,30.07,NNW,340,5.0,25.0,77,0.00,,,0.00,Wunderground v.1.15,2013-06-02 04:12:00,
2013-06-01 23:13:00,59.5,52.3,30.07,NNW,338,5.0,-999.0,77,0.00,,,0.00,Wunderground v.1.15,2013-06-02 04:13:00,
2013-06-01 23:18:00,59.5,52.3,30.07,NNW,338,5.0,-999.0,77,0.00,,,0.00,Wunderground v.1.15,2013-06-02 04:18:00,
2013-06-01 23:22:00,59.5,52.3,30.07,NNW,336,6.0,25.0,77,0.00,,,0.00,Wunderground v.1.15,2013-06-02 04:22:00,
2013-06-01 23:23:00,59.3,52.1,30.07,NNW,338,7.0,-999.0,77,0.00,,,0.00,Wunderground v.1.15,2013-06-02 04:23:00,
2013-06-01 23:28:00,59.3,52.1,30.07,NNW,338,7.0,-999.0,77,0.00,,,0.00,Wunderground v.1.15,2013-06-02 04:28:00,
2013-06-01 23:32:00,59.2,52.0,30.07,NNW,342,7.0,7.0,77,0.00,,,0.00,Wunderground v.1.15,2013-06-02 04:32:00,
2013-06-01 23:33:00,59.3,52.1,30.07,NNW,338,7.0,-999.0,77,0.00,,,0.00,Wunderground v.1.15,2013-06-02 04:33:00,
2013-06-01 23:38:00,58.6,51.8,30.07,NNW,338,5.0,-999.0,78,0.00,,,0.00,Wunderground v.1.15,2013-06-02 04:38:00,
2013-06-01 23:42:00,58.7,51.9,30.07,NNW,332,5.0,25.0,78,0.00,,,0.00,Wunderground v.1.15,2013-06-02 04:42:00,
2013-06-01 23:43:00,58.6,51.8,30.07,NNW,338,5.0,-999.0,78,0.00,,,0.00,Wunderground v.1.15,2013-06-02 04:43:00,
2013-06-01 23:48:00,58.6,51.8,30.07,NNW,338,5.0,-999.0,78,0.00,,,0.00,Wunderground v.1.15,2013-06-02 04:48:00,
2013-06-01 23:52:00,58.4,51.6,30.07,NW,318,4.0,25.0,78,0.00,,,0.00,Wunderground v.1.15,2013-06-02 04:52:00,
2013-06-01 23:53:00,58.2,51.7,30.07,NW,315,4.0,-999.0,79,0.00,,,0.00,Wunderground v.1.15,2013-06-02 04:53:00,
2013-06-01 23:58:00,58.2,51.7,30.07,NW,315,4.0,-999.0,79,0.00,,,0.00,Wunderground v.1.15,2013-06-02 04:58:00,